Time;durP1;ratioP1;P1;durP2;ratioP2;P2;SDS_P1;SDS_P2;PMS_P1;PMS_P2;Temp;Humidity;BMP_temperature;BMP_pressure;BME280_temperature;BME280_humidity;BME280_pressure;Samples;Min_cycle;Max_cycle;Signal;HPM_P1;HPM_P2
2023/06/12 00:01:40;;;;;;;4.70;2.20;;;;;;;15.90;76.24;98763.86;80700;1296;3025817;-62
2023/06/12 00:04:07;;;;;;;4.70;2.50;;;;;;;16.37;74.59;98754.98;81955;1297;3013193;-64
2023/06/12 00:06:33;;;;;;;6.60;2.50;;;;;;;16.35;73.92;98756.95;81889;1298;3011271;-63
2023/06/12 00:09:03;;;;;;;6.50;2.90;;;;;;;16.30;73.95;98757.77;80677;1296;3024869;-63
2023/06/12 00:11:30;;;;;;;7.20;4.40;;;;;;;16.11;74.45;98755.52;81943;1296;3011407;-63
2023/06/12 00:13:57;;;;;;;7.40;4.80;;;;;;;15.82;75.73;98754.70;81994;1296;3011313;-63
2023/06/12 00:16:26;;;;;;;7.00;4.60;;;;;;;15.66;76.53;98752.98;80669;1295;3049075;-63
2023/06/12 00:18:52;;;;;;;7.80;4.70;;;;;;;15.50;77.02;98741.45;81950;1296;3012676;-63
2023/06/12 00:21:21;;;;;;;7.50;4.40;;;;;;;15.33;77.91;98749.82;81904;1297;3011058;-62
2023/06/12 00:23:49;;;;;;;2.70;1.80;;;;;;;15.21;78.80;98750.94;80667;1296;3052833;-63
2023/06/12 00:26:15;;;;;;;3.30;1.90;;;;;;;15.68;77.74;98744.16;81932;1297;3012576;-63
2023/06/12 00:28:43;;;;;;;3.80;2.20;;;;;;;16.32;75.68;98746.79;81942;1296;3011372;-64
2023/06/12 00:31:11;;;;;;;3.80;2.40;;;;;;;16.29;75.02;98745.19;80673;1296;3049697;-62
2023/06/12 00:33:39;;;;;;;3.50;2.70;;;;;;;16.12;75.53;98741.49;81882;1297;3018428;-62
2023/06/12 00:36:06;;;;;;;4.60;3.10;;;;;;;15.99;75.79;98739.54;81957;1296;3011223;-63
2023/06/12 00:38:34;;;;;;;4.60;3.10;;;;;;;15.78;76.46;98737.77;80666;1297;3051758;-62
2023/06/12 00:41:01;;;;;;;4.70;3.60;;;;;;;15.51;77.07;98736.37;81925;1296;3011406;-64
2023/06/12 00:43:27;;;;;;;4.70;3.30;;;;;;;15.36;77.73;98737.07;81941;1296;3011304;-62
2023/06/12 00:45:55;;;;;;;4.50;2.10;;;;;;;15.24;78.33;98738.69;80621;1295;3026887;-62
2023/06/12 00:48:22;;;;;;;2.90;1.80;;;;;;;15.76;77.27;98727.52;81929;1296;3011252;-64
2023/06/12 00:50:49;;;;;;;3.30;2.20;;;;;;;16.05;75.56;98723.20;81932;1297;3011634;-62
2023/06/12 00:53:18;;;;;;;4.10;2.90;;;;;;;16.07;75.76;98726.06;80534;1299;3054316;-63
2023/06/12 00:55:45;;;;;;;4.10;2.60;;;;;;;15.94;76.07;98721.23;81876;1297;3013178;-62
2023/06/12 00:58:11;;;;;;;5.60;3.30;;;;;;;15.72;76.99;98720.48;81857;1297;3011393;-63
2023/06/12 01:00:40;;;;;;;6.60;4.00;;;;;;;15.58;77.15;98719.29;80652;1297;3026838;-63
2023/06/12 01:03:08;;;;;;;5.90;3.60;;;;;;;15.34;78.38;98719.04;81909;1297;3013298;-63
2023/06/12 01:05:40;;;;;;;6.90;3.90;;;;;;;15.20;78.77;98715.72;81885;1297;3011155;-62
2023/06/12 01:08:22;;;;;;;2.60;1.80;;;;;;;14.93;80.70;98716.73;80643;1297;3052024;-63
2023/06/12 01:11:04;;;;;;;2.70;1.90;;;;;;;15.60;78.92;98710.44;80620;1297;3068159;-63
2023/06/12 01:13:33;;;;;;;5.90;2.50;;;;;;;16.05;77.29;98710.21;80557;1296;3051425;-63
2023/06/12 01:16:00;;;;;;;5.30;2.60;;;;;;;15.91;77.14;98710.03;81844;1298;3011193;-63
2023/06/12 01:18:26;;;;;;;6.90;3.40;;;;;;;15.66;78.14;98708.34;81890;1296;3011198;-62
2023/06/12 01:20:58;;;;;;;6.40;3.80;;;;;;;15.45;78.91;98715.98;80615;1297;3050011;-63
2023/06/12 01:23:51;;;;;;;6.40;3.30;;;;;;;15.23;79.74;98715.69;81820;1297;3011441;-63
2023/06/12 01:26:29;;;;;;;6.80;4.30;;;;;;;15.10;80.15;98714.48;80630;1296;3052082;-62
2023/06/12 01:29:22;;;;;;;4.40;2.00;;;;;;;14.91;81.34;98712.59;80613;1297;3069988;-63
2023/06/12 01:32:09;;;;;;;3.00;2.10;;;;;;;15.42;80.10;98711.96;80567;1297;3050726;-63
2023/06/12 01:34:54;;;;;;;7.90;2.70;;;;;;;15.69;78.63;98706.61;80579;1297;3055790;-63
2023/06/12 01:37:32;;;;;;;5.10;2.70;;;;;;;15.67;78.41;98708.61;80484;1296;3048442;-63
2023/06/12 01:40:05;;;;;;;5.90;2.70;;;;;;;15.57;78.49;98709.35;80621;1297;3051916;-62
2023/06/12 01:42:32;;;;;;;5.10;2.60;;;;;;;15.37;78.80;98710.63;81907;1296;3011259;-63
2023/06/12 01:45:00;;;;;;;5.60;4.00;;;;;;;15.18;79.58;98705.89;80568;1299;3052053;-63
2023/06/12 01:47:27;;;;;;;6.30;3.80;;;;;;;15.03;80.00;98714.30;81938;1300;3012572;-62
2023/06/12 01:49:53;;;;;;;3.00;2.00;;;;;;;14.91;80.92;98722.05;81952;1296;3011168;-62
2023/06/12 01:52:21;;;;;;;3.20;2.00;;;;;;;15.36;80.31;98721.56;80581;1296;3026067;-63
2023/06/12 01:54:47;;;;;;;3.60;1.90;;;;;;;15.74;78.81;98708.83;81864;1297;3013154;-62
2023/06/12 01:57:19;;;;;;;3.50;1.90;;;;;;;15.56;78.94;98717.16;81896;1296;3011403;-63
2023/06/12 01:59:48;;;;;;;4.30;3.00;;;;;;;15.67;78.56;98717.73;80636;1297;3051075;-62
2023/06/12 02:02:16;;;;;;;5.10;3.40;;;;;;;15.38;79.57;98716.24;81882;1297;3011333;-63
2023/06/12 02:04:45;;;;;;;4.80;3.10;;;;;;;15.26;80.12;98718.88;81383;1296;3011238;-63
2023/06/12 02:07:11;;;;;;;4.20;2.60;;;;;;;15.13;81.07;98721.85;81929;1296;3017850;-63
2023/06/12 02:09:38;;;;;;;1.90;1.50;;;;;;;15.08;80.68;98721.45;81887;1296;3011154;-63
2023/06/12 02:12:07;;;;;;;1.60;1.10;;;;;;;15.28;81.44;98723.70;80605;1302;3025796;-63
2023/06/12 02:14:36;;;;;;;2.60;1.40;;;;;;;15.82;79.30;98715.48;81864;1297;3011360;-63
2023/06/12 02:17:05;;;;;;;1.60;1.10;;;;;;;15.92;78.35;98717.92;81425;1297;3011780;-65
2023/06/12 02:19:33;;;;;;;1.40;1.00;;;;;;;15.69;78.95;98721.48;81893;1297;3011556;-63
2023/06/12 02:22:00;;;;;;;3.10;1.40;;;;;;;15.49;79.86;98730.17;81929;1296;3011460;-63
2023/06/12 02:24:29;;;;;;;1.50;0.90;;;;;;;15.33;80.22;98721.63;80677;1296;3055651;-63
2023/06/12 02:26:56;;;;;;;2.10;0.80;;;;;;;15.18;80.79;98723.48;81879;1297;3012608;-63
2023/06/12 02:29:22;;;;;;;1.10;0.50;;;;;;;15.08;81.46;98733.27;81862;1297;3011867;-63
2023/06/12 02:31:53;;;;;;;2.10;0.50;;;;;;;15.42;81.43;98729.10;80705;1300;3052541;-63
2023/06/12 02:34:20;;;;;;;0.60;0.60;;;;;;;15.91;79.52;98727.71;81889;1297;3012643;-63
2023/06/12 02:36:47;;;;;;;1.30;0.50;;;;;;;15.97;78.77;98722.23;81878;1297;3011173;-63
2023/06/12 02:39:22;;;;;;;0.70;0.50;;;;;;;15.87;78.79;98733.11;80645;1296;3057941;-63
2023/06/12 02:41:48;;;;;;;1.20;0.70;;;;;;;15.65;79.18;98731.70;81883;1297;3013329;-63
2023/06/12 02:44:15;;;;;;;1.00;0.70;;;;;;;15.44;80.23;98742.66;81871;1296;3011397;-63
2023/06/12 02:46:51;;;;;;;0.60;0.60;;;;;;;15.15;81.88;98743.84;80699;1297;3026088;-63
2023/06/12 02:49:19;;;;;;;0.70;0.40;;;;;;;15.10;82.41;98744.38;80633;1297;3052531;-63
2023/06/12 02:51:46;;;;;;;0.50;0.40;;;;;;;15.60;81.22;98746.34;81897;1297;3018086;-63
2023/06/12 02:54:14;;;;;;;0.50;0.40;;;;;;;16.14;78.47;98743.04;81886;1296;3011472;-63
2023/06/12 02:56:44;;;;;;;2.00;0.40;;;;;;;16.11;78.32;98743.30;80629;1296;3048066;-63
2023/06/12 02:59:15;;;;;;;0.80;0.50;;;;;;;15.89;78.31;98749.08;81881;1297;3011245;-63
2023/06/12 03:01:45;;;;;;;1.30;0.60;;;;;;;15.57;79.81;98751.20;80650;1300;3050032;-63
2023/06/12 03:04:21;;;;;;;0.60;0.60;;;;;;;15.37;81.12;98751.08;80664;1297;3051374;-62
2023/06/12 03:06:51;;;;;;;1.70;0.70;;;;;;;15.23;81.69;98752.67;81909;1297;3011180;-63
2023/06/12 03:09:20;;;;;;;1.20;0.80;;;;;;;15.18;82.24;98751.92;80660;1296;3051847;-62
2023/06/12 03:11:47;;;;;;;1.00;0.70;;;;;;;15.62;81.42;98756.90;81934;1296;3012552;-63
2023/06/12 03:14:14;;;;;;;3.40;0.70;;;;;;;16.04;79.44;98750.34;81878;1297;3011648;-62
2023/06/12 03:16:42;;;;;;;0.80;0.50;;;;;;;16.06;78.86;98754.40;80655;1297;3049065;-63
2023/06/12 03:19:09;;;;;;;1.20;0.80;;;;;;;15.85;79.72;98755.51;81887;1300;3012667;-62
2023/06/12 03:21:36;;;;;;;0.80;0.70;;;;;;;15.65;80.33;98759.91;81871;1295;3011599;-63
2023/06/12 03:24:05;;;;;;;1.00;0.70;;;;;;;15.30;81.55;98765.67;80635;1297;3026232;-63
2023/06/12 03:26:33;;;;;;;1.30;0.90;;;;;;;15.16;82.54;98757.19;81908;1297;3013044;-63
2023/06/12 03:29:02;;;;;;;0.40;0.30;;;;;;;15.05;83.31;98764.14;81280;1301;3011379;-63
2023/06/12 03:31:30;;;;;;;0.80;0.50;;;;;;;15.60;82.25;98758.55;81858;1297;3012565;-63
2023/06/12 03:33:58;;;;;;;1.90;0.70;;;;;;;16.01;79.92;98758.41;81777;1297;3011235;-63
2023/06/12 03:36:28;;;;;;;2.20;0.80;;;;;;;16.04;79.30;98761.65;80663;1296;3052503;-63
2023/06/12 03:38:55;;;;;;;0.90;0.80;;;;;;;16.01;79.64;98764.05;81878;1300;3011169;-63
2023/06/12 03:41:26;;;;;;;2.20;1.40;;;;;;;15.73;79.73;98772.46;80589;1297;3027361;-63
2023/06/12 03:43:52;;;;;;;2.30;1.60;;;;;;;15.57;80.33;98771.98;81910;1297;3012615;-63
2023/06/12 03:46:19;;;;;;;3.00;1.70;;;;;;;15.36;81.38;98776.94;81848;1297;3011296;-62
2023/06/12 03:48:47;;;;;;;1.00;0.70;;;;;;;15.16;83.00;98771.14;80631;1297;3049347;-63
2023/06/12 03:51:14;;;;;;;1.80;1.20;;;;;;;15.70;81.57;98777.34;81884;1299;3012405;-64
2023/06/12 03:53:40;;;;;;;1.80;1.40;;;;;;;16.24;79.23;98768.96;81902;1296;3011117;-63
2023/06/12 03:56:08;;;;;;;6.30;2.00;;;;;;;16.28;78.43;98771.77;80570;1297;3025769;-63
2023/06/12 03:58:35;;;;;;;3.60;1.80;;;;;;;16.05;78.66;98774.27;81889;1297;3012757;-63
2023/06/12 04:01:02;;;;;;;10.50;2.30;;;;;;;15.87;79.35;98779.80;81838;1297;3011468;-63
2023/06/12 04:03:30;;;;;;;7.00;2.40;;;;;;;15.68;80.09;98782.12;80666;1296;3026818;-63
2023/06/12 04:05:57;;;;;;;8.60;2.40;;;;;;;15.50;80.36;98782.20;81868;1302;3012387;-63
2023/06/12 04:08:24;;;;;;;3.40;1.40;;;;;;;15.37;81.18;98778.40;81860;1298;3011161;-63
2023/06/12 04:10:52;;;;;;;3.20;1.40;;;;;;;15.75;80.32;98784.83;80606;1297;3051906;-64
2023/06/12 04:13:19;;;;;;;4.40;1.90;;;;;;;16.22;78.53;98780.45;81934;1296;3012624;-64
2023/06/12 04:15:47;;;;;;;4.80;2.30;;;;;;;16.30;77.81;98782.87;81885;1296;3011020;-64
2023/06/12 04:18:15;;;;;;;3.60;2.20;;;;;;;16.19;78.02;98782.35;80618;1297;3049370;-65
2023/06/12 04:20:41;;;;;;;7.20;2.50;;;;;;;15.96;78.67;98792.27;81944;1299;3012785;-64
2023/06/12 04:23:11;;;;;;;4.70;2.40;;;;;;;15.76;79.38;98790.91;81922;1295;3011443;-63
2023/06/12 04:25:42;;;;;;;7.40;2.80;;;;;;;15.58;79.88;98783.37;80625;1298;3050723;-63
2023/06/12 04:28:13;;;;;;;3.10;1.60;;;;;;;15.33;80.96;98789.88;81868;1297;3011220;-63
2023/06/12 04:30:41;;;;;;;7.60;2.00;;;;;;;15.76;80.16;98794.10;80552;1295;3048494;-63
2023/06/12 04:33:09;;;;;;;8.40;1.80;;;;;;;16.19;78.40;98792.04;81868;1296;3012643;-63
2023/06/12 04:35:36;;;;;;;6.30;1.80;;;;;;;16.32;77.94;98791.73;81872;1295;3011402;-64
2023/06/12 04:38:05;;;;;;;4.60;2.50;;;;;;;16.19;77.97;98797.70;80607;1300;3053139;-63
2023/06/12 04:40:36;;;;;;;8.40;2.10;;;;;;;15.94;78.79;98801.81;81892;1298;3012400;-63
2023/06/12 04:43:06;;;;;;;7.10;3.00;;;;;;;15.81;79.41;98800.20;80708;1296;3056672;-63
2023/06/12 04:45:34;;;;;;;5.20;2.60;;;;;;;15.60;79.75;98800.53;81871;1297;3011920;-63
2023/06/12 04:48:03;;;;;;;3.90;1.70;;;;;;;15.47;80.59;98799.42;80604;1296;3027015;-63
2023/06/12 04:50:30;;;;;;;5.30;2.10;;;;;;;15.89;79.60;98804.22;81948;1298;3012642;-63
2023/06/12 04:52:59;;;;;;;3.00;2.20;;;;;;;16.31;77.73;98798.71;81894;1298;3011146;-63
2023/06/12 04:55:29;;;;;;;3.80;2.20;;;;;;;16.34;77.30;98798.94;80647;1297;3068871;-63
2023/06/12 04:57:57;;;;;;;8.50;2.90;;;;;;;16.18;77.57;98805.79;81874;1296;3012763;-63
2023/06/12 05:00:28;;;;;;;6.90;2.70;;;;;;;16.07;77.85;98811.22;80682;1296;3054209;-63
2023/06/12 05:02:58;;;;;;;5.10;2.50;;;;;;;15.89;78.16;98815.70;81752;1301;3011581;-63
2023/06/12 05:05:27;;;;;;;6.90;2.40;;;;;;;15.66;78.91;98818.35;80603;1296;3052870;-63
2023/06/12 05:07:54;;;;;;;5.90;2.60;;;;;;;15.52;79.66;98822.75;81918;1296;3013283;-64
2023/06/12 05:10:21;;;;;;;2.30;1.40;;;;;;;15.43;80.12;98823.08;81961;1302;3011658;-64
2023/06/12 05:12:50;;;;;;;3.60;1.80;;;;;;;15.90;79.21;98824.79;80664;1300;3068956;-63
2023/06/12 05:15:17;;;;;;;4.30;1.80;;;;;;;16.41;77.08;98822.46;81887;1296;3013195;-63
2023/06/12 05:17:43;;;;;;;3.50;2.20;;;;;;;16.54;76.40;98819.34;81857;1297;3011343;-64
2023/06/12 05:20:12;;;;;;;4.60;2.30;;;;;;;16.39;76.28;98820.52;80625;1296;3026611;-63
2023/06/12 05:22:39;;;;;;;4.60;2.00;;;;;;;16.26;76.86;98823.73;81896;1301;3011170;-64
2023/06/12 05:25:06;;;;;;;4.60;2.20;;;;;;;16.02;77.16;98823.52;81873;1296;3011451;-63
2023/06/12 05:27:34;;;;;;;3.00;2.40;;;;;;;15.91;77.80;98825.29;80596;1302;3068342;-63
2023/06/12 05:30:02;;;;;;;5.40;2.50;;;;;;;15.68;78.66;98824.15;81928;1296;3012716;-63
2023/06/12 05:32:29;;;;;;;5.10;1.50;;;;;;;15.54;79.69;98824.69;81882;1299;3011614;-63
2023/06/12 05:34:57;;;;;;;2.90;1.60;;;;;;;16.02;78.78;98823.84;80587;1297;3054467;-63
2023/06/12 05:37:24;;;;;;;3.80;1.60;;;;;;;16.48;76.57;98821.85;81928;1300;3013066;-63
2023/06/12 05:39:52;;;;;;;5.20;1.70;;;;;;;16.59;76.05;98822.05;81870;1298;3011290;-63
2023/06/12 05:42:20;;;;;;;3.60;1.70;;;;;;;16.52;76.33;98825.86;80641;1298;3069172;-63
2023/06/12 05:44:47;;;;;;;5.50;1.70;;;;;;;16.29;76.86;98828.41;81921;1296;3012543;-63
2023/06/12 05:47:13;;;;;;;2.60;1.80;;;;;;;16.14;77.46;98826.27;81846;1296;3011840;-63
2023/06/12 05:49:41;;;;;;;3.70;1.30;;;;;;;15.96;78.08;98824.45;80638;1296;3027465;-63
2023/06/12 05:52:08;;;;;;;5.90;1.70;;;;;;;15.74;79.26;98829.91;81899;1299;3013357;-64
2023/06/12 05:54:35;;;;;;;0.90;0.80;;;;;;;15.64;80.19;98831.60;81869;1297;3011396;-63
2023/06/12 05:57:03;;;;;;;1.00;0.90;;;;;;;16.06;79.66;98830.13;80610;1300;3069356;-63
2023/06/12 05:59:31;;;;;;;1.20;1.00;;;;;;;16.59;77.61;98825.02;81897;1296;3012589;-63
2023/06/12 06:01:59;;;;;;;1.20;0.80;;;;;;;16.64;77.52;98828.50;81899;1296;3011341;-63
2023/06/12 06:04:29;;;;;;;1.70;1.00;;;;;;;16.59;77.42;98832.70;80626;1301;3052120;-63
2023/06/12 06:06:55;;;;;;;2.90;1.10;;;;;;;16.49;77.14;98837.14;81860;1297;3012827;-64
2023/06/12 06:09:22;;;;;;;1.50;1.20;;;;;;;16.28;77.74;98840.48;81859;1298;3011310;-63
2023/06/12 06:11:50;;;;;;;1.90;1.30;;;;;;;16.09;77.96;98838.89;80566;1297;3026343;-68
2023/06/12 06:14:17;;;;;;;1.90;1.00;;;;;;;15.83;79.34;98837.75;81892;1296;3013217;-67
2023/06/12 06:16:44;;;;;;;1.70;0.90;;;;;;;15.68;80.01;98841.23;81903;1297;3011559;-66
2023/06/12 06:19:12;;;;;;;1.40;0.80;;;;;;;16.07;79.59;98837.48;80592;1297;3027249;-66
2023/06/12 06:21:39;;;;;;;1.50;1.10;;;;;;;16.57;77.06;98837.02;81897;1297;3017858;-66
2023/06/12 06:24:07;;;;;;;1.70;1.40;;;;;;;16.58;76.56;98837.36;81908;1296;3011314;-68
2023/06/12 06:26:35;;;;;;;5.20;1.30;;;;;;;16.42;77.16;98835.07;80632;1295;3068879;-71
2023/06/12 06:29:03;;;;;;;2.00;1.20;;;;;;;16.32;77.46;98840.52;81923;1295;3011351;-66
2023/06/12 06:31:31;;;;;;;2.30;1.50;;;;;;;16.12;78.28;98840.95;81948;1296;3011181;-65
2023/06/12 06:33:58;;;;;;;1.80;1.30;;;;;;;15.87;78.98;98842.34;78336;1296;3051702;-64
2023/06/12 06:36:25;;;;;;;2.30;1.30;;;;;;;15.73;80.00;98838.46;81951;1300;3012853;-66
2023/06/12 06:38:51;;;;;;;1.70;0.60;;;;;;;15.73;80.17;98844.33;81924;1296;3011155;-68
2023/06/12 06:41:19;;;;;;;1.40;0.80;;;;;;;16.12;78.97;98840.52;80602;1297;3025958;-65
2023/06/12 06:43:46;;;;;;;1.70;1.00;;;;;;;16.70;76.29;98836.04;81886;1296;3018136;-66
2023/06/12 06:46:14;;;;;;;4.40;1.00;;;;;;;16.64;75.75;98834.95;81832;1298;3010992;-65
2023/06/12 06:48:43;;;;;;;3.80;1.50;;;;;;;16.41;76.51;98837.20;80582;1297;3051308;-65
2023/06/12 06:51:10;;;;;;;1.90;1.50;;;;;;;16.24;77.35;98842.48;81836;1297;3017913;-65
2023/06/12 06:53:36;;;;;;;2.50;1.20;;;;;;;16.03;77.77;98844.80;81922;1296;3011238;-65
2023/06/12 06:56:04;;;;;;;1.50;1.30;;;;;;;15.93;78.30;98845.55;80629;1296;3026157;-67
2023/06/12 06:58:31;;;;;;;3.60;1.50;;;;;;;15.82;78.72;98846.73;81886;1297;3011275;-65
2023/06/12 07:00:58;;;;;;;1.50;0.70;;;;;;;15.78;78.99;98846.02;81918;1296;3011454;-66
2023/06/12 07:03:27;;;;;;;1.10;0.90;;;;;;;16.26;77.73;98855.33;80631;1296;3053516;-66
2023/06/12 07:05:54;;;;;;;3.80;1.10;;;;;;;16.71;75.81;98853.42;81863;1297;3011281;-66
2023/06/12 07:12:07;;;;;;;2.60;1.40;;;;;;;16.40;76.34;98858.66;80082;1301;3012892;-66
2023/06/12 07:14:33;;;;;;;4.00;1.40;;;;;;;16.07;77.50;98859.91;79165;1305;3015177;-68
2023/06/12 07:17:01;;;;;;;2.30;1.50;;;;;;;15.90;78.26;98863.98;79120;1305;3013707;-66
2023/06/12 07:19:30;;;;;;;2.10;1.50;;;;;;;15.84;78.40;98868.81;78169;1306;3053948;-66
2023/06/12 07:21:57;;;;;;;1.00;0.70;;;;;;;15.65;80.00;98869.24;79619;1306;3013256;-67
2023/06/12 07:24:23;;;;;;;2.00;0.80;;;;;;;16.20;78.49;98866.86;77506;1302;3011492;-66
2023/06/12 07:26:52;;;;;;;1.70;1.20;;;;;;;16.58;76.26;98864.73;78157;1303;3026449;-67
2023/06/12 07:29:19;;;;;;;1.20;0.90;;;;;;;16.67;75.87;98870.58;79291;1302;3013229;-66
2023/06/12 07:31:47;;;;;;;1.90;1.10;;;;;;;16.61;76.27;98874.48;79317;1299;3011624;-66
2023/06/12 07:34:16;;;;;;;2.50;1.00;;;;;;;16.46;76.20;98882.70;78017;1303;3051603;-66
2023/06/12 07:36:43;;;;;;;2.00;1.10;;;;;;;16.31;76.35;98879.09;79555;1298;3013907;-66
2023/06/12 07:39:10;;;;;;;1.60;1.20;;;;;;;16.14;77.03;98881.79;79299;1298;3011936;-66
2023/06/12 07:41:40;;;;;;;1.10;0.90;;;;;;;15.99;77.89;98884.39;78100;1304;3050709;-66
2023/06/12 07:44:08;;;;;;;2.20;0.60;;;;;;;16.04;78.40;98883.34;79517;1298;3011694;-65
2023/06/12 07:46:37;;;;;;;2.10;0.90;;;;;;;16.57;77.25;98887.62;78146;1301;3026338;-66
2023/06/12 07:49:04;;;;;;;2.20;1.20;;;;;;;17.01;75.30;98884.52;79439;1298;3013801;-68
2023/06/12 07:51:30;;;;;;;1.60;1.20;;;;;;;17.08;74.77;98893.73;79331;1298;3011584;-65
2023/06/12 07:53:59;;;;;;;2.40;1.30;;;;;;;16.99;74.84;98896.39;78099;1298;3050928;-65
2023/06/12 07:56:27;;;;;;;2.90;1.60;;;;;;;16.64;75.93;98899.81;79621;1298;3013023;-66
2023/06/12 07:59:06;;;;;;;2.60;1.70;;;;;;;16.50;76.54;98903.50;79156;1298;3013648;-66
2023/06/12 08:01:35;;;;;;;3.30;1.90;;;;;;;16.25;77.06;98907.04;78433;1295;3052569;-64
2023/06/12 08:04:05;;;;;;;5.70;2.70;;;;;;;16.08;77.68;98913.02;79720;1298;3013520;-67
2023/06/12 08:06:33;;;;;;;2.10;1.20;;;;;;;16.02;78.23;98914.50;78371;1300;3052814;-65
2023/06/12 08:09:00;;;;;;;3.70;1.70;;;;;;;16.52;76.73;98904.19;79703;1298;3012729;-64
2023/06/12 08:11:27;;;;;;;4.30;1.90;;;;;;;17.01;74.66;98905.83;79480;1298;3011351;-67
2023/06/12 08:13:55;;;;;;;6.00;2.30;;;;;;;17.09;73.71;98908.91;78547;1298;3026440;-68
2023/06/12 08:16:24;;;;;;;6.90;2.30;;;;;;;16.94;73.72;98911.36;79598;1295;3013250;-67
2023/06/12 08:18:51;;;;;;;6.30;2.60;;;;;;;16.65;75.26;98920.62;79486;1296;3013557;-65
2023/06/12 08:21:21;;;;;;;6.80;2.90;;;;;;;16.48;76.26;98915.91;78319;1300;3052747;-68
2023/06/12 08:23:48;;;;;;;7.00;2.50;;;;;;;16.34;76.89;98913.27;79534;1299;3017925;-65
2023/06/12 08:26:16;;;;;;;5.70;3.00;;;;;;;16.24;77.25;98917.59;79404;1300;3011734;-65
2023/06/12 08:28:48;;;;;;;6.60;2.40;;;;;;;16.20;77.67;98917.73;78383;1295;3048693;-67
2023/06/12 08:31:15;;;;;;;7.50;2.30;;;;;;;16.77;76.04;98917.95;79444;1295;3011405;-66
2023/06/12 08:33:43;;;;;;;7.50;2.70;;;;;;;17.23;74.19;98911.75;78271;1301;3049860;-68
2023/06/12 08:36:12;;;;;;;6.60;2.60;;;;;;;17.28;73.90;98916.22;79583;1295;3011403;-68
2023/06/12 08:38:41;;;;;;;8.30;3.00;;;;;;;17.17;73.92;98916.46;78414;1299;3026419;-67
2023/06/12 08:41:09;;;;;;;9.90;3.20;;;;;;;16.92;74.81;98915.95;79691;1295;3013830;-65
2023/06/12 08:43:36;;;;;;;6.60;3.50;;;;;;;16.84;74.80;98920.80;79491;1294;3011885;-66
2023/06/12 08:46:06;;;;;;;8.80;3.40;;;;;;;16.62;76.05;98925.48;78320;1295;3049676;-68
2023/06/12 08:48:34;;;;;;;8.80;3.10;;;;;;;16.57;76.08;98926.12;79530;1300;3013184;-67
2023/06/12 08:51:03;;;;;;;3.70;1.80;;;;;;;16.56;76.50;98927.86;79192;1295;3013601;-67
2023/06/12 08:53:30;;;;;;;5.40;2.80;;;;;;;17.14;75.34;98925.95;79431;1301;3013464;-67
2023/06/12 08:55:56;;;;;;;7.10;2.70;;;;;;;17.59;72.55;98921.02;79597;1296;3011574;-67
2023/06/12 08:58:24;;;;;;;9.50;3.40;;;;;;;17.68;72.34;98921.89;78253;1295;3028360;-67
2023/06/12 09:00:51;;;;;;;9.60;3.40;;;;;;;17.65;71.82;98924.35;79680;1295;3012816;-71
2023/06/12 09:03:19;;;;;;;7.70;3.50;;;;;;;17.48;72.66;98931.26;79558;1295;3011816;-65
2023/06/12 09:05:47;;;;;;;9.70;3.40;;;;;;;17.25;73.42;98931.98;78275;1295;3050118;-64
2023/06/12 09:08:14;;;;;;;11.10;3.60;;;;;;;17.21;73.70;98934.30;79310;1301;3013111;-65
2023/06/12 09:10:40;;;;;;;10.80;3.70;;;;;;;17.13;73.87;98932.69;79588;1295;3011579;-65
2023/06/12 09:13:09;;;;;;;5.40;3.50;;;;;;;17.04;74.54;98933.91;78136;1295;3024900;-64
2023/06/12 09:15:38;;;;;;;5.50;2.10;;;;;;;16.91;75.53;98933.73;79509;1295;3011578;-64
2023/06/12 09:18:10;;;;;;;7.90;3.00;;;;;;;17.41;74.50;98930.02;78850;1295;3011770;-64
2023/06/12 09:20:38;;;;;;;8.10;3.00;;;;;;;17.96;72.43;98927.10;79387;1298;3013944;-64
2023/06/12 09:23:05;;;;;;;8.50;3.00;;;;;;;18.04;72.01;98928.27;78125;1301;3026134;-65
2023/06/12 09:25:37;;;;;;;10.60;3.70;;;;;;;17.89;72.26;98929.90;79493;1294;3013073;-65
2023/06/12 09:28:07;;;;;;;6.10;3.70;;;;;;;17.66;72.68;98935.95;78165;1298;3068993;-64
2023/06/12 09:30:38;;;;;;;7.30;3.20;;;;;;;17.49;73.53;98936.13;79572;1295;3013284;-64
2023/06/12 09:33:07;;;;;;;6.90;3.70;;;;;;;17.39;73.99;98936.81;78285;1300;3056378;-64
2023/06/12 09:35:51;;;;;;;9.60;3.80;;;;;;;17.30;74.66;98936.05;79456;1298;3012509;-65
2023/06/12 09:38:32;;;;;;;10.10;3.40;;;;;;;17.19;74.95;98935.16;78070;1295;3052374;-65
2023/06/12 09:41:04;;;;;;;4.70;1.80;;;;;;;17.20;75.15;98936.30;78110;1295;3050786;-70
2023/06/12 09:43:31;;;;;;;7.40;2.80;;;;;;;17.81;73.36;98934.27;79481;1295;3011834;-64
2023/06/12 09:46:06;;;;;;;6.30;2.60;;;;;;;18.31;71.57;98937.14;78153;1298;3026813;-64
2023/06/12 09:48:38;;;;;;;6.10;2.70;;;;;;;18.41;70.82;98935.02;78818;1298;3011685;-64
2023/06/12 09:51:07;;;;;;;6.00;3.50;;;;;;;18.23;70.99;98932.23;79368;1295;3011646;-64
2023/06/12 09:53:36;;;;;;;5.60;3.00;;;;;;;17.96;71.77;98932.69;78176;1295;3050749;-65
2023/06/12 09:56:05;;;;;;;5.00;2.70;;;;;;;17.80;72.07;98932.27;79609;1295;3013012;-65
2023/06/12 09:58:36;;;;;;;4.40;3.00;;;;;;;17.61;72.42;98932.18;79004;1295;3011808;-65
2023/06/12 10:01:05;;;;;;;9.60;3.50;;;;;;;17.52;72.87;98944.39;79639;1298;3012802;-64
2023/06/12 10:03:38;;;;;;;5.80;3.20;;;;;;;17.43;73.60;98945.02;78382;1295;3027167;-64
2023/06/12 10:06:06;;;;;;;5.40;3.10;;;;;;;17.29;74.25;98941.98;79497;1298;3013089;-64
2023/06/12 10:08:35;;;;;;;4.70;1.80;;;;;;;17.17;75.11;98942.31;78240;1298;3052354;-64
2023/06/12 10:11:05;;;;;;;8.00;2.30;;;;;;;17.74;73.88;98936.95;79250;1299;3013454;-65
2023/06/12 10:13:34;;;;;;;2.60;2.10;;;;;;;18.34;71.43;98930.80;78006;1300;3057025;-65
2023/06/12 10:16:01;;;;;;;4.50;2.60;;;;;;;18.42;70.85;98933.52;79283;1295;3013201;-64
2023/06/12 10:18:29;;;;;;;6.20;2.80;;;;;;;18.18;71.12;98931.85;79332;1299;3013541;-65
2023/06/12 10:20:57;;;;;;;8.50;3.00;;;;;;;18.03;71.42;98936.33;78024;1301;3052106;-64
2023/06/12 10:23:23;;;;;;;6.00;3.20;;;;;;;17.87;71.88;98934.77;79345;1298;3013571;-64
2023/06/12 10:25:50;;;;;;;9.60;3.40;;;;;;;17.72;72.20;98939.55;79320;1301;3013195;-64
2023/06/12 10:28:18;;;;;;;4.10;2.90;;;;;;;17.59;72.71;98940.54;77973;1301;3028883;-64
2023/06/12 10:31:13;;;;;;;5.50;2.70;;;;;;;17.49;73.36;98944.71;79289;1295;3019094;-64
2023/06/12 10:34:00;;;;;;;6.30;3.10;;;;;;;17.37;73.80;98950.05;78041;1301;3050539;-65
2023/06/12 10:36:41;;;;;;;3.60;1.70;;;;;;;17.39;74.38;98950.35;78155;1298;3053356;-64
2023/06/12 10:39:24;;;;;;;3.70;2.00;;;;;;;18.07;72.47;98952.80;78233;1298;3054038;-66
2023/06/12 10:41:56;;;;;;;13.20;2.30;;;;;;;18.66;70.64;98956.48;78129;1294;3069134;-64
2023/06/12 10:44:42;;;;;;;3.10;2.40;;;;;;;18.71;69.96;98957.49;79543;1298;3013031;-64
2023/06/12 10:47:36;;;;;;;7.20;2.80;;;;;;;18.48;70.20;98963.05;78291;1298;3056712;-64
2023/06/12 10:50:05;;;;;;;4.50;2.60;;;;;;;18.35;70.57;98958.03;78155;1298;3049941;-64
2023/06/12 10:52:32;;;;;;;6.30;3.10;;;;;;;18.06;71.34;98957.66;79747;1294;3013733;-65
2023/06/12 10:55:20;;;;;;;5.80;2.80;;;;;;;18.00;71.69;98959.89;79386;1294;3013173;-64
2023/06/12 10:57:52;;;;;;;6.70;2.50;;;;;;;17.83;72.33;98955.73;78359;1298;3053581;-64
2023/06/12 11:00:23;;;;;;;5.40;2.80;;;;;;;17.64;72.97;98955.25;79415;1298;3012818;-64
2023/06/12 11:02:59;;;;;;;5.40;3.10;;;;;;;17.60;73.36;98955.98;78462;1298;3050766;-67
2023/06/12 11:05:28;;;;;;;2.70;1.50;;;;;;;17.65;73.01;98954.44;78310;1295;3058051;-64
2023/06/12 11:08:05;;;;;;;2.10;1.60;;;;;;;18.28;71.76;98953.40;79714;1295;3012920;-64
2023/06/12 11:10:34;;;;;;;3.30;2.20;;;;;;;18.77;69.57;98950.64;78114;1295;3049621;-64
2023/06/12 11:13:01;;;;;;;7.70;2.00;;;;;;;18.85;68.98;98955.04;79334;1301;3014038;-64
2023/06/12 11:15:28;;;;;;;3.30;2.60;;;;;;;18.63;69.88;98954.13;79353;1298;3011588;-64
2023/06/12 11:17:56;;;;;;;5.40;2.50;;;;;;;18.51;70.11;98952.45;78093;1296;3050567;-65
2023/06/12 11:20:22;;;;;;;3.90;2.50;;;;;;;18.44;69.76;98950.36;79436;1295;3018873;-64
2023/06/12 11:22:58;;;;;;;4.60;2.20;;;;;;;18.36;69.96;98950.93;79324;1298;3011769;-64
2023/06/12 11:25:26;;;;;;;4.10;2.20;;;;;;;18.20;70.54;98949.92;78113;1298;3050367;-65
2023/06/12 11:27:53;;;;;;;3.90;2.30;;;;;;;18.09;71.21;98951.42;79404;1301;3020494;-64
2023/06/12 11:30:20;;;;;;;5.70;2.80;;;;;;;18.03;71.19;98947.52;79439;1298;3011614;-63